TCA7378 SVMG-SVBI
Flight info
| Callsign | TCA7378 |
|---|---|
| Flight time | 1h 14m |
| Altitude | 40000 |
| Route | CUM1 CUM DCT BNA DCT TOMAX DCT BNS |
| Aircraft | C25B/M-SDE2E3FGHRWXY/LB1 |
Departure
| Time | 2026-05-05 22:28 |
|---|---|
| Airport | Del Caribe Santiago Mariño International Airport (SVMG) |
Arrival
| Time | 2026-05-05 23:42 |
|---|---|
| Airport | Barinas Airport (SVBI) |
| Time | Latitude | Longitude | Altitude | Speed | Heading |
|---|---|---|---|---|---|
| 2026-05-05 22:21 | 10.91451 | -63.97142 | 56 ft | 0 kts | 78° |
| 2026-05-05 22:26 | 10.91452 | -63.97140 | 56 ft | 2 kts | 80° |
| 2026-05-05 22:26 | 10.91433 | -63.97143 | 56 ft | 9 kts | 292° |
| 2026-05-05 22:26 | 10.91406 | -63.97172 | 52 ft | 11 kts | 174° |
| 2026-05-05 22:26 | 10.91327 | -63.97150 | 57 ft | 12 kts | 165° |
| 2026-05-05 22:27 | 10.91243 | -63.97131 | 61 ft | 11 kts | 168° |
| 2026-05-05 22:27 | 10.91179 | -63.97108 | 57 ft | 9 kts | 120° |
| 2026-05-05 22:27 | 10.91217 | -63.96886 | 59 ft | 84 kts | 78° |
| 2026-05-05 22:27 | 10.91410 | -63.95969 | 448 ft | 161 kts | 77° |
| 2026-05-05 22:28 | 10.91631 | -63.94738 | 1604 ft | 194 kts | 91° |
| 2026-05-05 22:28 | 10.90999 | -63.93465 | 2677 ft | 221 kts | 136° |
| 2026-05-05 22:28 | 10.89515 | -63.92983 | 3913 ft | 236 kts | 178° |
| 2026-05-05 22:28 | 10.87975 | -63.93627 | 5170 ft | 251 kts | 218° |
| 2026-05-05 22:29 | 10.87094 | -63.95134 | 6365 ft | 257 kts | 251° |
| 2026-05-05 22:29 | 10.86292 | -63.96746 | 7421 ft | 257 kts | 223° |
| 2026-05-05 22:29 | 10.84914 | -63.97905 | 8506 ft | 258 kts | 211° |
| 2026-05-05 22:29 | 10.83273 | -63.98619 | 9499 ft | 259 kts | 197° |
| 2026-05-05 22:30 | 10.81631 | -63.99409 | 10467 ft | 267 kts | 209° |
| 2026-05-05 22:30 | 10.80229 | -64.00695 | 11434 ft | 275 kts | 224° |
| 2026-05-05 22:30 | 10.78922 | -64.02139 | 12378 ft | 280 kts | 223° |
| 2026-05-05 22:30 | 10.77536 | -64.03547 | 13311 ft | 284 kts | 221° |
| 2026-05-05 22:31 | 10.76097 | -64.04942 | 14239 ft | 288 kts | 221° |
| 2026-05-05 22:31 | 10.74666 | -64.06349 | 15135 ft | 292 kts | 222° |
| 2026-05-05 22:31 | 10.73203 | -64.07808 | 16018 ft | 297 kts | 223° |
| 2026-05-05 22:31 | 10.71714 | -64.09281 | 16895 ft | 301 kts | 223° |
| 2026-05-05 22:32 | 10.70207 | -64.10780 | 17737 ft | 305 kts | 223° |
| 2026-05-05 22:32 | 10.68674 | -64.12295 | 18603 ft | 309 kts | 223° |
| 2026-05-05 22:32 | 10.67129 | -64.13826 | 19441 ft | 312 kts | 224° |
| 2026-05-05 22:32 | 10.65570 | -64.15371 | 20286 ft | 314 kts | 224° |
| 2026-05-05 22:33 | 10.64022 | -64.16903 | 21112 ft | 315 kts | 224° |
| 2026-05-05 22:33 | 10.62444 | -64.18466 | 21898 ft | 318 kts | 224° |
| 2026-05-05 22:33 | 10.60852 | -64.20044 | 22642 ft | 322 kts | 225° |
| 2026-05-05 22:33 | 10.59243 | -64.21637 | 23347 ft | 325 kts | 225° |
| 2026-05-05 22:34 | 10.57609 | -64.23249 | 24075 ft | 328 kts | 225° |
| 2026-05-05 22:34 | 10.55976 | -64.24872 | 24818 ft | 329 kts | 225° |
| 2026-05-05 22:34 | 10.54332 | -64.26495 | 25533 ft | 331 kts | 225° |
| 2026-05-05 22:34 | 10.52675 | -64.28136 | 26147 ft | 335 kts | 225° |
| 2026-05-05 22:35 | 10.50995 | -64.29797 | 26760 ft | 339 kts | 225° |
| 2026-05-05 22:35 | 10.49317 | -64.31455 | 27342 ft | 343 kts | 225° |
| 2026-05-05 22:35 | 10.47601 | -64.33155 | 27934 ft | 346 kts | 225° |
| 2026-05-05 22:35 | 10.45863 | -64.34871 | 28494 ft | 350 kts | 225° |
| 2026-05-05 22:36 | 10.44108 | -64.36607 | 29051 ft | 354 kts | 225° |
| 2026-05-05 22:36 | 10.42334 | -64.38357 | 29601 ft | 357 kts | 225° |
| 2026-05-05 22:36 | 10.40542 | -64.40128 | 30126 ft | 361 kts | 225° |
| 2026-05-05 22:36 | 10.38733 | -64.41919 | 30653 ft | 365 kts | 225° |
| 2026-05-05 22:37 | 10.36903 | -64.43725 | 31159 ft | 369 kts | 225° |
| 2026-05-05 22:37 | 10.35077 | -64.45526 | 31643 ft | 373 kts | 225° |
| 2026-05-05 22:37 | 10.33211 | -64.47374 | 32138 ft | 376 kts | 225° |
| 2026-05-05 22:37 | 10.31326 | -64.49232 | 32605 ft | 380 kts | 224° |
| 2026-05-05 22:38 | 10.29419 | -64.51112 | 33216 ft | 377 kts | 225° |
| 2026-05-05 22:38 | 10.27612 | -64.52900 | 34675 ft | 349 kts | 225° |
| 2026-05-05 22:38 | 10.25924 | -64.54561 | 35906 ft | 333 kts | 224° |
| 2026-05-05 22:38 | 10.24252 | -64.56211 | 36371 ft | 338 kts | 225° |
| 2026-05-05 22:39 | 10.22557 | -64.57884 | 36849 ft | 342 kts | 224° |
| 2026-05-05 22:39 | 10.20844 | -64.59578 | 37349 ft | 345 kts | 225° |
| 2026-05-05 22:39 | 10.19135 | -64.61259 | 37813 ft | 348 kts | 224° |
| 2026-05-05 22:39 | 10.17390 | -64.62981 | 38276 ft | 351 kts | 225° |
| 2026-05-05 22:40 | 10.15632 | -64.64716 | 38741 ft | 354 kts | 225° |
| 2026-05-05 22:40 | 10.13871 | -64.66472 | 39174 ft | 356 kts | 227° |
| 2026-05-05 22:40 | 10.12427 | -64.68513 | 39592 ft | 357 kts | 242° |
| 2026-05-05 22:40 | 10.11442 | -64.70825 | 39910 ft | 362 kts | 254° |
| 2026-05-05 22:41 | 10.10974 | -64.73373 | 39917 ft | 374 kts | 267° |
| 2026-05-05 22:41 | 10.10834 | -64.76014 | 39927 ft | 386 kts | 268° |
| 2026-05-05 22:41 | 10.10683 | -64.78771 | 39929 ft | 398 kts | 268° |
| 2026-05-05 22:42 | 10.10331 | -64.84478 | 39926 ft | 407 kts | 268° |
| 2026-05-05 22:42 | 10.10000 | -64.90218 | 39928 ft | 408 kts | 268° |
| 2026-05-05 22:43 | 10.09656 | -64.95968 | 39924 ft | 408 kts | 268° |
| 2026-05-05 22:43 | 10.09317 | -65.01678 | 39928 ft | 408 kts | 267° |
| 2026-05-05 22:44 | 10.08973 | -65.07429 | 39925 ft | 408 kts | 268° |
| 2026-05-05 22:44 | 10.08628 | -65.13187 | 39928 ft | 409 kts | 267° |
| 2026-05-05 22:45 | 10.08286 | -65.18948 | 39926 ft | 409 kts | 267° |
| 2026-05-05 22:45 | 10.07937 | -65.24702 | 39926 ft | 409 kts | 267° |
| 2026-05-05 22:46 | 10.07594 | -65.30429 | 39928 ft | 409 kts | 267° |
| 2026-05-05 22:46 | 10.07245 | -65.36187 | 39927 ft | 409 kts | 267° |
| 2026-05-05 22:47 | 10.06893 | -65.41947 | 39925 ft | 409 kts | 267° |
| 2026-05-05 22:47 | 10.06545 | -65.47708 | 39927 ft | 409 kts | 267° |
| 2026-05-05 22:48 | 10.06194 | -65.53432 | 39924 ft | 409 kts | 267° |
| 2026-05-05 22:48 | 10.05841 | -65.59191 | 39924 ft | 409 kts | 267° |
| 2026-05-05 22:49 | 10.05490 | -65.64944 | 39925 ft | 409 kts | 267° |
| 2026-05-05 22:49 | 10.05135 | -65.70705 | 39926 ft | 409 kts | 267° |
| 2026-05-05 22:50 | 10.04781 | -65.76471 | 39926 ft | 410 kts | 267° |
| 2026-05-05 22:50 | 10.04424 | -65.82201 | 39926 ft | 409 kts | 267° |
| 2026-05-05 22:51 | 10.04067 | -65.87966 | 39927 ft | 409 kts | 267° |
| 2026-05-05 22:51 | 10.03709 | -65.93724 | 39924 ft | 409 kts | 267° |
| 2026-05-05 22:52 | 10.03349 | -65.99484 | 39926 ft | 409 kts | 267° |
| 2026-05-05 22:52 | 10.02991 | -66.05199 | 39926 ft | 409 kts | 267° |
| 2026-05-05 22:53 | 10.02630 | -66.10958 | 39924 ft | 409 kts | 267° |
| 2026-05-05 22:53 | 10.02264 | -66.16716 | 39925 ft | 409 kts | 267° |
| 2026-05-05 22:54 | 10.01904 | -66.22465 | 39927 ft | 409 kts | 267° |
| 2026-05-05 22:54 | 10.01541 | -66.28191 | 39928 ft | 409 kts | 267° |
| 2026-05-05 22:55 | 10.01173 | -66.33942 | 39926 ft | 409 kts | 267° |
| 2026-05-05 22:55 | 10.00812 | -66.39700 | 39927 ft | 409 kts | 267° |
| 2026-05-05 22:56 | 10.00443 | -66.45459 | 39928 ft | 409 kts | 267° |
| 2026-05-05 22:56 | 10.00071 | -66.51219 | 39929 ft | 409 kts | 267° |
| 2026-05-05 22:57 | 9.99707 | -66.56944 | 39929 ft | 409 kts | 267° |
| 2026-05-05 22:57 | 9.99334 | -66.62707 | 39929 ft | 410 kts | 267° |
| 2026-05-05 22:58 | 9.98963 | -66.68484 | 39928 ft | 410 kts | 267° |
| 2026-05-05 22:58 | 9.98590 | -66.74261 | 39928 ft | 410 kts | 267° |
| 2026-05-05 22:59 | 9.98217 | -66.79992 | 39930 ft | 411 kts | 267° |
| 2026-05-05 22:59 | 9.97840 | -66.85776 | 39929 ft | 411 kts | 267° |
| 2026-05-05 23:00 | 9.97276 | -66.94454 | 39930 ft | 411 kts | 267° |
| 2026-05-05 23:00 | 9.96898 | -67.00238 | 39931 ft | 411 kts | 267° |
| 2026-05-05 23:01 | 9.96519 | -67.05973 | 39930 ft | 410 kts | 267° |
| 2026-05-05 23:01 | 9.96140 | -67.11748 | 39930 ft | 410 kts | 267° |
| 2026-05-05 23:02 | 9.96032 | -67.17517 | 39931 ft | 408 kts | 275° |
| 2026-05-05 23:02 | 9.96335 | -67.23275 | 39931 ft | 409 kts | 274° |
| 2026-05-05 23:03 | 9.96611 | -67.29005 | 39932 ft | 410 kts | 274° |
| 2026-05-05 23:03 | 9.96901 | -67.34778 | 39934 ft | 410 kts | 274° |
| 2026-05-05 23:04 | 9.97182 | -67.40556 | 39935 ft | 410 kts | 274° |
| 2026-05-05 23:04 | 9.97466 | -67.46331 | 39936 ft | 410 kts | 274° |
| 2026-05-05 23:05 | 9.97746 | -67.52067 | 39936 ft | 410 kts | 274° |
| 2026-05-05 23:05 | 9.98030 | -67.57851 | 39937 ft | 410 kts | 274° |
| 2026-05-05 23:06 | 9.98310 | -67.63636 | 39938 ft | 411 kts | 274° |
| 2026-05-05 23:06 | 9.98591 | -67.69422 | 39938 ft | 411 kts | 274° |
| 2026-05-05 23:07 | 9.98867 | -67.75173 | 39938 ft | 411 kts | 274° |
| 2026-05-05 23:07 | 9.99150 | -67.80970 | 39939 ft | 411 kts | 274° |
| 2026-05-05 23:08 | 9.99424 | -67.86763 | 39940 ft | 411 kts | 274° |
| 2026-05-05 23:08 | 9.99703 | -67.92554 | 39940 ft | 411 kts | 274° |
| 2026-05-05 23:09 | 9.99977 | -67.98347 | 39940 ft | 411 kts | 274° |
| 2026-05-05 23:09 | 10.00250 | -68.04092 | 39941 ft | 411 kts | 274° |
| 2026-05-05 23:10 | 10.00523 | -68.09883 | 39941 ft | 411 kts | 274° |
| 2026-05-05 23:10 | 10.00796 | -68.15674 | 39940 ft | 411 kts | 274° |
| 2026-05-05 23:11 | 10.01065 | -68.21425 | 39940 ft | 411 kts | 274° |
| 2026-05-05 23:11 | 10.01337 | -68.27213 | 39942 ft | 411 kts | 274° |
| 2026-05-05 23:12 | 10.01605 | -68.32994 | 39948 ft | 410 kts | 274° |
| 2026-05-05 23:12 | 10.01874 | -68.38785 | 39948 ft | 411 kts | 274° |
| 2026-05-05 23:13 | 10.02138 | -68.44565 | 39958 ft | 410 kts | 274° |
| 2026-05-05 23:13 | 10.02404 | -68.50311 | 39957 ft | 410 kts | 274° |
| 2026-05-05 23:14 | 10.02670 | -68.56095 | 39967 ft | 410 kts | 274° |
| 2026-05-05 23:14 | 10.02383 | -68.61852 | 39974 ft | 411 kts | 258° |
| 2026-05-05 23:15 | 10.00148 | -68.67162 | 39980 ft | 412 kts | 237° |
| 2026-05-05 23:15 | 9.98357 | -68.69431 | 39977 ft | 413 kts | 226° |
| 2026-05-05 23:15 | 9.96371 | -68.71469 | 39984 ft | 413 kts | 226° |
| 2026-05-05 23:16 | 9.92355 | -68.75638 | 39989 ft | 414 kts | 226° |
| 2026-05-05 23:16 | 9.88322 | -68.79805 | 39989 ft | 414 kts | 226° |
| 2026-05-05 23:17 | 9.84293 | -68.83978 | 39991 ft | 414 kts | 226° |
| 2026-05-05 23:17 | 9.80283 | -68.88122 | 39992 ft | 414 kts | 226° |
| 2026-05-05 23:18 | 9.76249 | -68.92294 | 39994 ft | 415 kts | 226° |
| 2026-05-05 23:18 | 9.72209 | -68.96467 | 39994 ft | 414 kts | 226° |
| 2026-05-05 23:19 | 9.68174 | -69.00637 | 40004 ft | 414 kts | 226° |
| 2026-05-05 23:19 | 9.64138 | -69.04806 | 40003 ft | 414 kts | 226° |
| 2026-05-05 23:20 | 9.60374 | -69.09153 | 40001 ft | 414 kts | 229° |
| 2026-05-05 23:20 | 9.56561 | -69.13524 | 40002 ft | 414 kts | 229° |
| 2026-05-05 23:21 | 9.52762 | -69.17909 | 40002 ft | 414 kts | 229° |
| 2026-05-05 23:21 | 9.48955 | -69.22290 | 40003 ft | 414 kts | 229° |
| 2026-05-05 23:22 | 9.45174 | -69.26644 | 40003 ft | 414 kts | 229° |
| 2026-05-05 23:22 | 9.41365 | -69.31025 | 40003 ft | 414 kts | 229° |
| 2026-05-05 23:23 | 9.37560 | -69.35402 | 40004 ft | 414 kts | 229° |
| 2026-05-05 23:23 | 9.35644 | -69.37604 | 39659 ft | 421 kts | 229° |
| 2026-05-05 23:23 | 9.33705 | -69.39832 | 38781 ft | 422 kts | 229° |
| 2026-05-05 23:24 | 9.31774 | -69.42055 | 37904 ft | 418 kts | 229° |
| 2026-05-05 23:24 | 9.29885 | -69.44226 | 37052 ft | 414 kts | 229° |
| 2026-05-05 23:24 | 9.27989 | -69.46401 | 36198 ft | 409 kts | 229° |
| 2026-05-05 23:24 | 9.26121 | -69.48548 | 35345 ft | 404 kts | 230° |
| 2026-05-05 23:25 | 9.24275 | -69.50668 | 34513 ft | 399 kts | 230° |
| 2026-05-05 23:25 | 9.22457 | -69.52760 | 33692 ft | 393 kts | 230° |
| 2026-05-05 23:25 | 9.20661 | -69.54821 | 32883 ft | 387 kts | 230° |
| 2026-05-05 23:25 | 9.18889 | -69.56850 | 32089 ft | 382 kts | 230° |
| 2026-05-05 23:26 | 9.17145 | -69.58856 | 31303 ft | 377 kts | 230° |
| 2026-05-05 23:26 | 9.15447 | -69.60808 | 30538 ft | 372 kts | 230° |
| 2026-05-05 23:26 | 9.13743 | -69.62757 | 29772 ft | 367 kts | 230° |
| 2026-05-05 23:26 | 9.12064 | -69.64685 | 29009 ft | 363 kts | 230° |
| 2026-05-05 23:27 | 9.10411 | -69.66586 | 28263 ft | 358 kts | 230° |
| 2026-05-05 23:27 | 9.08770 | -69.68462 | 27528 ft | 354 kts | 230° |
| 2026-05-05 23:27 | 9.07153 | -69.70321 | 26799 ft | 350 kts | 230° |
| 2026-05-05 23:27 | 9.05552 | -69.72154 | 26081 ft | 345 kts | 230° |
| 2026-05-05 23:28 | 9.03974 | -69.73965 | 25359 ft | 341 kts | 230° |
| 2026-05-05 23:28 | 9.02417 | -69.75755 | 24671 ft | 337 kts | 230° |
| 2026-05-05 23:28 | 9.00891 | -69.77495 | 23987 ft | 333 kts | 230° |
| 2026-05-05 23:28 | 8.99370 | -69.79243 | 23303 ft | 329 kts | 230° |
| 2026-05-05 23:29 | 8.97865 | -69.80965 | 22629 ft | 325 kts | 229° |
| 2026-05-05 23:29 | 8.96379 | -69.82669 | 21954 ft | 321 kts | 229° |
| 2026-05-05 23:29 | 8.94906 | -69.84356 | 21294 ft | 318 kts | 229° |
| 2026-05-05 23:29 | 8.93449 | -69.86027 | 20635 ft | 315 kts | 228° |
| 2026-05-05 23:30 | 8.91971 | -69.87641 | 19975 ft | 311 kts | 222° |
| 2026-05-05 23:30 | 8.90473 | -69.89144 | 19178 ft | 292 kts | 228° |
| 2026-05-05 23:30 | 8.89254 | -69.90721 | 18160 ft | 277 kts | 231° |
| 2026-05-05 23:30 | 8.87943 | -69.91985 | 17150 ft | 258 kts | 210° |
| 2026-05-05 23:31 | 8.86412 | -69.92853 | 16131 ft | 246 kts | 199° |
| 2026-05-05 23:31 | 8.84787 | -69.93296 | 15118 ft | 239 kts | 187° |
| 2026-05-05 23:31 | 8.83168 | -69.93632 | 14179 ft | 237 kts | 189° |
| 2026-05-05 23:31 | 8.81503 | -69.93978 | 13414 ft | 248 kts | 187° |
| 2026-05-05 23:32 | 8.79846 | -69.94311 | 12559 ft | 239 kts | 188° |
| 2026-05-05 23:32 | 8.78240 | -69.94637 | 11561 ft | 232 kts | 188° |
| 2026-05-05 23:32 | 8.76675 | -69.94958 | 10563 ft | 228 kts | 188° |
| 2026-05-05 23:32 | 8.75150 | -69.95261 | 9582 ft | 225 kts | 187° |
| 2026-05-05 23:33 | 8.73624 | -69.95574 | 8718 ft | 223 kts | 188° |
| 2026-05-05 23:33 | 8.72133 | -69.95878 | 8496 ft | 216 kts | 187° |
| 2026-05-05 23:33 | 8.70664 | -69.96172 | 8217 ft | 216 kts | 188° |
| 2026-05-05 23:33 | 8.69167 | -69.96476 | 7918 ft | 224 kts | 188° |
| 2026-05-05 23:34 | 8.67612 | -69.96788 | 7595 ft | 231 kts | 188° |
| 2026-05-05 23:34 | 8.66018 | -69.97112 | 7254 ft | 237 kts | 188° |
| 2026-05-05 23:34 | 8.64381 | -69.97444 | 6908 ft | 243 kts | 188° |
| 2026-05-05 23:34 | 8.62718 | -69.97787 | 6567 ft | 245 kts | 188° |
| 2026-05-05 23:35 | 8.61050 | -69.98122 | 6225 ft | 242 kts | 188° |
| 2026-05-05 23:35 | 8.59449 | -69.98448 | 5900 ft | 234 kts | 188° |
| 2026-05-05 23:35 | 8.57923 | -69.98861 | 5576 ft | 221 kts | 201° |
| 2026-05-05 23:35 | 8.56661 | -69.99677 | 5280 ft | 210 kts | 216° |
| 2026-05-05 23:36 | 8.55696 | -70.00743 | 4989 ft | 203 kts | 234° |
| 2026-05-05 23:36 | 8.55064 | -70.01989 | 4709 ft | 196 kts | 250° |
| 2026-05-05 23:36 | 8.54756 | -70.03320 | 4441 ft | 195 kts | 260° |
| 2026-05-05 23:36 | 8.54495 | -70.04662 | 4174 ft | 195 kts | 257° |
| 2026-05-05 23:37 | 8.54225 | -70.06001 | 3903 ft | 195 kts | 258° |
| 2026-05-05 23:37 | 8.53961 | -70.07345 | 3628 ft | 195 kts | 258° |
| 2026-05-05 23:37 | 8.53796 | -70.08651 | 3354 ft | 178 kts | 273° |
| 2026-05-05 23:37 | 8.54100 | -70.09804 | 3099 ft | 164 kts | 291° |
| 2026-05-05 23:38 | 8.54658 | -70.10744 | 2884 ft | 154 kts | 307° |
| 2026-05-05 23:38 | 8.55236 | -70.11631 | 2685 ft | 149 kts | 299° |
| 2026-05-05 23:38 | 8.55778 | -70.12508 | 2489 ft | 146 kts | 304° |
| 2026-05-05 23:38 | 8.56341 | -70.13355 | 2304 ft | 144 kts | 302° |
| 2026-05-05 23:39 | 8.56872 | -70.14210 | 2110 ft | 143 kts | 301° |
| 2026-05-05 23:39 | 8.57392 | -70.14998 | 1946 ft | 127 kts | 304° |
| 2026-05-05 23:39 | 8.57857 | -70.15722 | 1774 ft | 120 kts | 301° |
| 2026-05-05 23:39 | 8.58299 | -70.16419 | 1614 ft | 116 kts | 303° |
| 2026-05-05 23:40 | 8.58749 | -70.17105 | 1460 ft | 118 kts | 302° |
| 2026-05-05 23:40 | 8.59179 | -70.17785 | 1305 ft | 114 kts | 301° |
| 2026-05-05 23:40 | 8.59612 | -70.18451 | 1154 ft | 112 kts | 303° |
| 2026-05-05 23:40 | 8.60035 | -70.19106 | 1006 ft | 111 kts | 302° |
| 2026-05-05 23:41 | 8.60451 | -70.19754 | 860 ft | 110 kts | 303° |
| 2026-05-05 23:41 | 8.60869 | -70.20396 | 713 ft | 108 kts | 302° |
| 2026-05-05 23:41 | 8.61261 | -70.21015 | 625 ft | 98 kts | 303° |
| 2026-05-05 23:41 | 8.61572 | -70.21503 | 627 ft | 61 kts | 303° |
| 2026-05-05 23:42 | 8.61736 | -70.21751 | 623 ft | 32 kts | 303° |
| 2026-05-05 23:42 | 8.61837 | -70.21907 | 624 ft | 22 kts | 303° |
| 2026-05-05 23:42 | 8.61907 | -70.22016 | 626 ft | 15 kts | 303° |
| 2026-05-05 23:42 | 8.61989 | -70.22076 | 628 ft | 16 kts | 9° |
| 2026-05-05 23:43 | 8.62081 | -70.22034 | 629 ft | 13 kts | 18° |
| 2026-05-05 23:43 | 8.62168 | -70.22012 | 634 ft | 15 kts | 30° |
| 2026-05-05 23:43 | 8.62250 | -70.22025 | 634 ft | 9 kts | 264° |
| 2026-05-05 23:43 | 8.62245 | -70.22033 | 633 ft | 0 kts | 216° |